METAR Data
IDs: Format: Raw Decoded Include TAF

Data at: 0944 UTC 26 Jan 2020

KMTW 260929Z AUTO 30008KT 10SM -RA FEW009 BKN012 OVC039 01/00 A2983 RMK AO2 UPB07E18 P0000 FZRANO
KMTW 260856Z AUTO 29008KT 10SM -RA FEW033 OVC041 01/00 A2983 RMK AO2 UPE26RAB46 SLP109 P0000 60000 T00060000 52003 FZRANO
KMTW 260846Z AUTO 30008KT 10SM -RA FEW011 BKN033 OVC041 01/00 A2983 RMK AO2 UPE26RAB46 P0000 FZRANO
KMTW 260829Z AUTO 30009KT 10SM SCT011 OVC015 01/00 A2983 RMK AO2 UPE26 P0000 FZRANO
KMTW 260756Z AUTO 29008KT 10SM UP OVC011 01/00 A2983 RMK AO2 RAE21UPB48 CIG 009V013 SLP108 P0000 T00060000 FZRANO
KMTW 260751Z AUTO 29008KT 10SM UP OVC011 01/00 A2983 RMK AO2 RAE21UPB48 CIG 009V013 P0000 FZRANO
KMTW 260656Z AUTO 28007KT 10SM -RA OVC009 01/01 A2982 RMK AO2 UPB03E13 CIG 007V011 SLP106 P0000 T00060006 FZRANO
KMTW 260634Z AUTO 28006KT 10SM -RA OVC009 01/00 A2982 RMK AO2 UPB03E13 CIG 007V012 P0000 FZRANO
KMTW 260609Z AUTO 30005KT 6SM UP BR BKN011 OVC024 01/00 A2983 RMK AO2 RAE03UPB03 CIG 008V013 P0000 FZRANO
KMTW 260556Z AUTO 30006KT 10SM -RA FEW009 BKN019 OVC024 01/00 A2983 RMK AO2 UPB09E11B29E50RAB11E29B50 SLP107 P0000 60000 T00060000 10011 20006 53005 FZRANO
KMTW 260456Z AUTO 28007KT 10SM FEW007 OVC017 01/01 A2982 RMK AO2 SLP104 T00110006 400220000 FZRANO
KMTW 260430Z AUTO 28006KT 10SM SCT007 BKN017 OVC022 01/01 A2982 RMK AO2 FZRANO
KMTW 260414Z AUTO 27006KT 10SM BKN020 OVC044 01/01 A2981 RMK AO2 FZRANO
KMTW 260356Z AUTO 28006KT 10SM SCT024 BKN044 OVC060 01/01 A2981 RMK AO2 RAB01E21UPB21E24 SLP102 P0000 T00110006 FZRANO
KMTW 260256Z AUTO 29006KT 10SM OVC020 01/01 A2981 RMK AO2 UPE04 SLP102 P0000 60000 T00110006 50002 FZRANO
KMTW 260214Z AUTO 28005KT 10SM SCT011 OVC024 01/01 A2982 RMK AO2 UPE04 P0000 FZRANO
KMTW 260156Z AUTO 28006KT 10SM UP OVC011 01/01 A2982 RMK AO2 UPB18 SLP105 P0000 T00060006 FZRANO
KMTW 260056Z AUTO 28007KT 8SM SCT005 OVC011 01/01 A2982 RMK AO2 UPB29E51 SLP104 P0000 T00110006 FZRANO
KMTW 252356Z AUTO 29004KT 8SM OVC005 01/01 A2981 RMK AO2 UPB22E36 SLP102 P0000 60000 T00110006 10022 20006 51011 FZRANO
KMTW 252325Z AUTO 31005KT 10SM UP OVC005 01/01 A2980 RMK AO2 UPB22 P0000 FZRANO
KMTW 252256Z AUTO 31007KT 10SM OVC003 01/01 A2980 RMK AO2 SLPNO T00060006 FZRANO
KMTW 252156Z AUTO 31007KT 9SM OVC003 01/01 A2979 RMK AO2 SLPNO T00110006 FZRANO
KMTW 252110Z AUTO 33007KT 4SM BR OVC003 01/01 A2978 RMK AO2 FZRANO
KMTW 252056Z AUTO 32006KT 2 1/2SM BR OVC005 01/01 A2978 RMK AO2 VIS 1 3/4V3 SLPNO T00110006 53004 FZRANO
KMTW 252014Z AUTO 31008KT 10SM OVC005 02/01 A2977 RMK AO2 FZRANO
KMTW 251956Z AUTO 31007KT 10SM OVC007 02/01 A2976 RMK AO2 SLP085 T00170006 FZRANO
KMTW 251905Z AUTO 31007KT 10SM OVC007 02/01 A2976 RMK AO2 FZRANO
KMTW 251856Z AUTO 30006KT 10SM OVC005 02/01 A2976 RMK AO2 SLP084 T00220011 FZRANO
KMTW 251756Z AUTO 32006KT 10SM OVC005 02/01 A2976 RMK AO2 RAE37UPB37E43 SLP086 P0000 60000 T00170006 10017 20000 58002 FZRANO
KMTW 251656Z AUTO 32005KT 3SM -RA BR OVC005 02/01 A2978 RMK AO2 RAB16 SLP092 P0000 T00170006 FZRANO
KMTW 251611Z AUTO 34005KT 10SM BKN005 OVC014 01/00 A2978 RMK AO2 FZRANO
KMTW 251556Z AUTO 34006KT 10SM FEW005 OVC014 01/00 A2978 RMK AO2 SLP091 T00060000 FZRANO
KMTW 251539Z AUTO 34006KT 8SM SCT005 OVC014 01/00 A2977 RMK AO2 FZRANO
KMTW 251513Z AUTO 33005KT 9SM OVC005 01/00 A2977 RMK AO2 CIG 005V008 FZRANO
KMTW 251456Z AUTO 34004KT 9SM OVC007 01/00 A2977 RMK AO2 UPB08E38RAB38E52SNE08 CIG 004V010 SLP088 P0000 60000 T00060000 53005 FZRANO
KMTW 251416Z AUTO 35004KT 4SM UP BR OVC005 00/00 A2977 RMK AO2 UPB08SNE08 P0000 FZRANO
KMTW 251356Z AUTO 32005KT 2SM -SN BR OVC005 00/00 A2976 RMK AO2 UPE21SNB21 SLP086 P0000 T00000000 FZRANO
KMTW 251351Z AUTO 32006KT 2SM -SN BR OVC003 00/00 A2976 RMK AO2 UPE21SNB21 P0000 FZRANO
KMTW 251332Z AUTO 32006KT 1 3/4SM -SN BR OVC003 00/00 A2976 RMK AO2 UPE21SNB21 P0000 FZRANO
KMTW 251318Z AUTO 32005KT 2 1/2SM UP BR OVC003 00/00 A2976 RMK AO2 P0000 FZRANO
KMTW 251256Z AUTO 32005KT 5SM UP BR OVC003 00/00 A2976 RMK AO2 UPB05 SLP084 P0000 T00000000 FZRANO
KMTW 251156Z AUTO 33003KT 6SM BR OVC003 00/00 A2974 RMK AO2 RAE07UPB07E32 SLP079 P0000 60004 70027 T00000000 56004 FZRANO
KMTW 251056Z AUTO 33004KT 5SM -RA OVC003 A2974 RMK AO2 SLPNO P0000 FZRANO
KMTW 250956Z AUTO 33004KT 4SM -RA OVC003 A2974 RMK AO2 UPB04E19 SLPNO P0001 FZRANO
KMTW 250856Z AUTO 35004KT 3SM -RA OVC003 A2975 RMK AO2 UPE43RAB43 SLPNO P0000 60003 58002 FZRANO
KMTW 250837Z AUTO 35004KT 3SM UP OVC003 00/ A2975 RMK AO2 P0000 FZRANO
KMTW 250814Z AUTO 35004KT 2 1/2SM UP OVC003 00/ A2976 RMK AO2 P0000 FZRANO
KMTW 250756Z AUTO 36003KT 4SM UP BR OVC003 00/00 A2976 RMK AO2 UPB26SNE26 SLP084 P0001 T00000000 FZRANO
KMTW 250732Z AUTO 35003KT 4SM UP BR OVC003 00/00 A2976 RMK AO2 UPB26SNE26 P0001 FZRANO
KMTW 250724Z AUTO 35004KT 2 1/2SM -SN BR OVC003 00/00 A2976 RMK AO2 P0001 FZRANO
KMTW 250656Z AUTO 36004KT 1 1/2SM -SN BR OVC003 00/00 A2976 RMK AO2 VIS 1V2 CIG 002V008 SLP084 P0002 T00000000 FZRANO
KMTW 250651Z AUTO 35004KT 2SM -SN BR OVC003 00/00 A2976 RMK AO2 VIS 1 1/4V2 1/2 P0002 FZRANO
KMTW 250556Z AUTO 34004KT 1 3/4SM -SN BR OVC003 00/00 A2977 RMK AO2 RAE0458UPB13E15SNB0458E13B15 SLP088 P0003 60013 T00000000 10011 20000 58013 FZRANO
KMTW 250532Z AUTO 35004KT 1 3/4SM -SN BR OVC003 01/00 A2978 RMK AO2 RAE0458UPB13E15SNB0458E13B15 P0002 FZRANO
KMTW 250503Z AUTO 35004KT 2 1/2SM -SN BR OVC003 01/01 A2978 RMK AO2 RAE0458SNB0458 CIG 002V007 P0001 FZRANO
KMTW 250456Z AUTO 36004KT 3SM -RA BR OVC005 01/01 A2978 RMK AO2 UPE0358B21E30RAB0358SNB41E50 CIG 003V007 SLP092 P0002 T00060006 400220006 FZRANO
KMTW 250444Z AUTO 35003KT 2 1/2SM -SN BR OVC005 01/01 A2979 RMK AO2 UPE0358B21E30RAB0358E41SNB41 CIG 003V007 P0002 FZRANO
KMTW 250432Z AUTO 34005KT 1 1/2SM -RA BR OVC005 01/01 A2978 RMK AO2 UPE0358B21E30RAB0358 CIG 003V007 P0002 FZRANO
KMTW 250356Z AUTO 35003KT 1 3/4SM UP BR OVC003 01/01 A2980 RMK AO2 RAE23UPB23 SLP098 P0001 T00060006 FZRANO
KMTW 250336Z AUTO 35003KT 1 3/4SM UP BR OVC003 01/01 A2980 RMK AO2 RAE23UPB23 P0001 FZRANO
KMTW 250325Z AUTO 36004KT 2SM UP BR OVC003 01/01 A2981 RMK AO2 RAE23UPB23 P0001 FZRANO
KMTW 250307Z AUTO 35004KT 1 3/4SM -RA BR OVC003 01/00 A2981 RMK AO2 P0000 FZRANO
KMTW 250256Z AUTO 35004KT 2SM -RA BR OVC003 01/00 A2981 RMK AO2 UPB33E39 SLP101 P0001 60007 T00060000 56013 FZRANO
KMTW 250236Z AUTO 34005KT 2 1/2SM UP BR OVC003 01/00 A2982 RMK AO2 RAE33UPB33 P0001 FZRANO
KMTW 250156Z AUTO 01003KT 4SM -RA BR OVC003 01/00 A2982 RMK AO2 UPE0059RAB39SNB0059E39 SLP105 P0001 T00060000 FZRANO
KMTW 250144Z AUTO 36004KT 4SM -RA BR OVC003 01/00 A2982 RMK AO2 UPE0059RAB39SNB0059E39 P0001 FZRANO
KMTW 250125Z AUTO 02003KT 2SM -SN BR OVC003 01/00 A2983 RMK AO2 UPE0059SNB0059 P0001 FZRANO
KMTW 250115Z AUTO 00000KT 1 3/4SM -SN BR OVC003 01/00 A2983 RMK AO2 UPE0059SNB0059 P0000 FZRANO
KMTW 250105Z AUTO 01003KT 2SM -SN BR OVC003 01/00 A2983 RMK AO2 UPE0059SNB0059 P0000 FZRANO
KMTW 250056Z AUTO 01003KT 3SM UP BR OVC003 01/00 A2983 RMK AO2 UPB22SNE22 SLP110 P0005 T00060000 FZRANO
KMTW 250039Z AUTO 00000KT 2SM UP BR OVC003 01/00 A2984 RMK AO2 UPB22SNE22 P0004 FZRANO
KMTW 250025Z AUTO 00000KT 1 3/4SM UP BR OVC005 01/00 A2984 RMK AO2 UPB22SNE22 P0003 FZRANO
KMTW 250005Z AUTO 05003KT 2 1/2SM -SN BR OVC005 01/01 A2984 RMK AO2 P0001 FZRANO
KMTW 242356Z AUTO 06003KT 3SM -SN BR OVC005 01/01 A2985 RMK AO2 RAE13UPB13E53SNB39E48B53 SLP114 P0005 60006 T00110006 10022 20011 56008 FZRANO
KMTW 242329Z AUTO 07004KT 4SM UP BR OVC005 01/01 A2985 RMK AO2 RAE13UPB13 P0003 FZRANO
KMTW 242314Z AUTO 07006KT 4SM UP BR OVC003 01/01 A2985 RMK AO2 RAE13UPB13 P0001 FZRANO
KMTW 242304Z AUTO 07007KT 2 1/2SM -RA BR OVC003 02/01 A2985 RMK AO2 P0001 FZRANO
KMTW 242256Z AUTO 07008KT 1 3/4SM -RA BR OVC003 02/01 A2985 RMK AO2 UPE14RAB14 SLP116 P0001 T00170011 FZRANO
KMTW 242156Z AUTO 07005KT 1 3/4SM UP BR OVC003 02/02 A2986 RMK AO2 RAE35UPB35 SLP119 P0000 T00220017 FZRANO